Terminal Aerodrome Forecast
Issued by NWS Amarillo, TX

Current Version | Previous Version | Text Only | Print | Product List | Glossary On
Versions: 1 2 3 4 5 6 7 8 9 10 11 12 13 14 15 16 17 18 19 20 21 22 23 24 25 26 27 28
000
FTUS44 KAMA 191200 AAA
TAFAMA
TAF AMD
KAMA 191234Z 1913/2012 16006KT 4SM BR OVC003
      TEMPO 1913/1914 OVC002
     FM191500 19005KT 6SM BR OVC012
     FM191800 17005KT P6SM BKN025
     FM200600 18005KT 3SM BR OVC010=

USA.gov is the U.S. government's official web portal to all federal, state and local government web resources and services.